sensor_id;sensor_type;location;lat;lon;timestamp;pressure;altitude;pressure_sealevel;temperature;humidity
44734;BME280;30462;52.446;-1.930;2023-05-20T00:00:18;101508.043;;;;
44734;BME280;30462;52.446;-1.930;2023-05-20T00:01:18;101508.6914;;;;
44734;BME280;30462;52.446;-1.930;2023-05-20T00:02:18;101508.3281;;;;
44734;BME280;30462;52.446;-1.930;2023-05-20T00:03:18;101505.5586;;;;
44734;BME280;30462;52.446;-1.930;2023-05-20T00:04:18;101510.0898;;;;
44734;BME280;30462;52.446;-1.930;2023-05-20T00:05:18;101512.5078;;;;
44734;BME280;30462;52.446;-1.930;2023-05-20T00:06:18;101511.6211;;;;
44734;BME280;30462;52.446;-1.930;2023-05-20T00:07:17;101511.668;;;;
44734;BME280;30462;52.446;-1.930;2023-05-20T00:08:18;101515.3086;;;;
44734;BME280;30462;52.446;-1.930;2023-05-20T00:09:18;101512.7617;;;;
44734;BME280;30462;52.446;-1.930;2023-05-20T00:10:18;101510.8516;;;;
44734;BME280;30462;52.446;-1.930;2023-05-20T00:11:17;101513.2695;;;;
44734;BME280;30462;52.446;-1.930;2023-05-20T00:12:18;101513.8633;;;;
44734;BME280;30462;52.446;-1.930;2023-05-20T00:13:18;101509.9648;;;;
44734;BME280;30462;52.446;-1.930;2023-05-20T00:14:18;101505.9648;;;;
44734;BME280;30462;52.446;-1.930;2023-05-20T00:15:18;101510.5742;;;;
44734;BME280;30462;52.446;-1.930;2023-05-20T00:16:18;101510.5547;;;;
44734;BME280;30462;52.446;-1.930;2023-05-20T00:17:18;101513.5352;;;;
44734;BME280;30462;52.446;-1.930;2023-05-20T00:18:18;101511.9883;;;;
44734;BME280;30462;52.446;-1.930;2023-05-20T00:19:18;101515.9023;;;;
44734;BME280;30462;52.446;-1.930;2023-05-20T00:20:18;101513.4844;;;;
44734;BME280;30462;52.446;-1.930;2023-05-20T00:21:19;101518.8164;;;;
44734;BME280;30462;52.446;-1.930;2023-05-20T00:22:18;101518.1875;;;;
44734;BME280;30462;52.446;-1.930;2023-05-20T00:23:18;101518.332;;;;
44734;BME280;30462;52.446;-1.930;2023-05-20T00:24:18;101515.2578;;;;
44734;BME280;30462;52.446;-1.930;2023-05-20T00:25:18;101517.9844;;;;
44734;BME280;30462;52.446;-1.930;2023-05-20T00:26:17;101516.4375;;;;
44734;BME280;30462;52.446;-1.930;2023-05-20T00:27:17;101520.9258;;;;
44734;BME280;30462;52.446;-1.930;2023-05-20T00:28:18;101519.9063;;;;
44734;BME280;30462;52.446;-1.930;2023-05-20T00:29:19;101521.8594;;;;
44734;BME280;30462;52.446;-1.930;2023-05-20T00:30:18;101524.4219;;;;
44734;BME280;30462;52.446;-1.930;2023-05-20T00:31:18;101524.2695;;;;
44734;BME280;30462;52.446;-1.930;2023-05-20T00:32:18;101522.8125;;;;
44734;BME280;30462;52.446;-1.930;2023-05-20T00:33:17;101524.2305;;;;
44734;BME280;30462;52.446;-1.930;2023-05-20T00:34:18;101523.7891;;;;
44734;BME280;30462;52.446;-1.930;2023-05-20T00:35:17;101527.3398;;;;
44734;BME280;30462;52.446;-1.930;2023-05-20T00:36:18;101527.8047;;;;
44734;BME280;30462;52.446;-1.930;2023-05-20T00:37:18;101529.5664;;;;
44734;BME280;30462;52.446;-1.930;2023-05-20T00:38:18;101529.1719;;;;
44734;BME280;30462;52.446;-1.930;2023-05-20T00:39:18;101529.082;;;;
44734;BME280;30462;52.446;-1.930;2023-05-20T00:40:18;101529.2813;;;;
44734;BME280;30462;52.446;-1.930;2023-05-20T00:41:18;101528.3359;;;;
44734;BME280;30462;52.446;-1.930;2023-05-20T00:42:18;101527.2422;;;;
44734;BME280;30462;52.446;-1.930;2023-05-20T00:43:18;101526.4063;;;;
44734;BME280;30462;52.446;-1.930;2023-05-20T00:44:18;101524.4648;;;;
44734;BME280;30462;52.446;-1.930;2023-05-20T00:45:18;101523.332;;;;
44734;BME280;30462;52.446;-1.930;2023-05-20T00:46:18;101524.3789;;;;
44734;BME280;30462;52.446;-1.930;2023-05-20T00:47:19;101519.4453;;;;
44734;BME280;30462;52.446;-1.930;2023-05-20T00:48:18;101523.293;;;;
44734;BME280;30462;52.446;-1.930;2023-05-20T00:49:17;101521.6875;;;;
44734;BME280;30462;52.446;-1.930;2023-05-20T00:50:17;101521.8242;;;;
44734;BME280;30462;52.446;-1.930;2023-05-20T00:51:18;101521.1172;;;;
44734;BME280;30462;52.446;-1.930;2023-05-20T00:52:18;101518.9102;;;;
44734;BME280;30462;52.446;-1.930;2023-05-20T00:53:18;101522.6563;;;;
44734;BME280;30462;52.446;-1.930;2023-05-20T00:54:18;101522.2656;;;;
44734;BME280;30462;52.446;-1.930;2023-05-20T00:55:18;101517.9297;;;;
44734;BME280;30462;52.446;-1.930;2023-05-20T00:56:18;101519.3281;;;;
44734;BME280;30462;52.446;-1.930;2023-05-20T00:57:18;101521.2344;;;;
44734;BME280;30462;52.446;-1.930;2023-05-20T00:58:17;101521.6406;;;;
44734;BME280;30462;52.446;-1.930;2023-05-20T00:59:18;101515.918;;;;
44734;BME280;30462;52.446;-1.930;2023-05-20T01:00:17;101519.9219;;;;
44734;BME280;30462;52.446;-1.930;2023-05-20T01:01:18;101520.4609;;;;
44734;BME280;30462;52.446;-1.930;2023-05-20T01:02:18;101522.7617;;;;
44734;BME280;30462;52.446;-1.930;2023-05-20T01:03:18;101520.2734;;;;
44734;BME280;30462;52.446;-1.930;2023-05-20T01:04:18;101526.7813;;;;
44734;BME280;30462;52.446;-1.930;2023-05-20T01:05:17;101523.168;;;;
44734;BME280;30462;52.446;-1.930;2023-05-20T01:06:18;101522.2617;;;;
44734;BME280;30462;52.446;-1.930;2023-05-20T01:07:18;101523.1563;;;;
44734;BME280;30462;52.446;-1.930;2023-05-20T01:08:18;101519.0352;;;;
44734;BME280;30462;52.446;-1.930;2023-05-20T01:09:18;101520.6523;;;;
44734;BME280;30462;52.446;-1.930;2023-05-20T01:10:18;101521.6875;;;;
44734;BME280;30462;52.446;-1.930;2023-05-20T01:11:19;101521.1836;;;;
44734;BME280;30462;52.446;-1.930;2023-05-20T01:12:20;101522.75;;;;
44734;BME280;30462;52.446;-1.930;2023-05-20T01:13:19;101518.9648;;;;
44734;BME280;30462;52.446;-1.930;2023-05-20T01:14:18;101516.3984;;;;
44734;BME280;30462;52.446;-1.930;2023-05-20T01:15:18;101517.5625;;;;
44734;BME280;30462;52.446;-1.930;2023-05-20T01:16:18;101518.8086;;;;
44734;BME280;30462;52.446;-1.930;2023-05-20T01:17:18;101522.4023;;;;
44734;BME280;30462;52.446;-1.930;2023-05-20T01:18:18;101524.4883;;;;
44734;BME280;30462;52.446;-1.930;2023-05-20T01:19:21;101520.2813;;;;
44734;BME280;30462;52.446;-1.930;2023-05-20T01:20:17;101520.6563;;;;
44734;BME280;30462;52.446;-1.930;2023-05-20T01:21:18;101515.9219;;;;
44734;BME280;30462;52.446;-1.930;2023-05-20T01:22:18;101516.9258;;;;
44734;BME280;30462;52.446;-1.930;2023-05-20T01:23:18;101516.8203;;;;
44734;BME280;30462;52.446;-1.930;2023-05-20T01:24:18;101516.3711;;;;
44734;BME280;30462;52.446;-1.930;2023-05-20T01:25:18;101514.0703;;;;
44734;BME280;30462;52.446;-1.930;2023-05-20T01:26:18;101514.3359;;;;
44734;BME280;30462;52.446;-1.930;2023-05-20T01:27:19;101512.293;;;;
44734;BME280;30462;52.446;-1.930;2023-05-20T01:28:18;101511.0977;;;;
44734;BME280;30462;52.446;-1.930;2023-05-20T01:29:18;101511.5156;;;;
44734;BME280;30462;52.446;-1.930;2023-05-20T01:30:19;101511.6328;;;;
44734;BME280;30462;52.446;-1.930;2023-05-20T01:31:19;101511.6797;;;;
44734;BME280;30462;52.446;-1.930;2023-05-20T01:32:18;101509.7109;;;;
44734;BME280;30462;52.446;-1.930;2023-05-20T01:33:19;101509.1016;;;;
44734;BME280;30462;52.446;-1.930;2023-05-20T01:34:18;101510.3203;;;;
44734;BME280;30462;52.446;-1.930;2023-05-20T01:35:18;101511.0977;;;;
44734;BME280;30462;52.446;-1.930;2023-05-20T01:36:18;101510.8633;;;;
44734;BME280;30462;52.446;-1.930;2023-05-20T01:37:18;101510.3438;;;;
44734;BME280;30462;52.446;-1.930;2023-05-20T01:38:18;101512.7656;;;;
44734;BME280;30462;52.446;-1.930;2023-05-20T01:39:18;101511.7969;;;;
44734;BME280;30462;52.446;-1.930;2023-05-20T01:40:18;101508.6563;;;;
44734;BME280;30462;52.446;-1.930;2023-05-20T01:41:18;101508.7695;;;;
44734;BME280;30462;52.446;-1.930;2023-05-20T01:42:18;101510.293;;;;
44734;BME280;30462;52.446;-1.930;2023-05-20T01:43:18;101513.2734;;;;
44734;BME280;30462;52.446;-1.930;2023-05-20T01:44:17;101515.125;;;;
44734;BME280;30462;52.446;-1.930;2023-05-20T01:45:18;101515.7813;;;;
44734;BME280;30462;52.446;-1.930;2023-05-20T01:46:17;101514.0781;;;;
44734;BME280;30462;52.446;-1.930;2023-05-20T01:47:17;101514.2617;;;;
44734;BME280;30462;52.446;-1.930;2023-05-20T01:48:17;101507.3867;;;;
44734;BME280;30462;52.446;-1.930;2023-05-20T01:49:18;101507.3438;;;;
44734;BME280;30462;52.446;-1.930;2023-05-20T01:50:18;101510.3438;;;;
44734;BME280;30462;52.446;-1.930;2023-05-20T01:51:18;101508.75;;;;
44734;BME280;30462;52.446;-1.930;2023-05-20T01:52:18;101512.1328;;;;
44734;BME280;30462;52.446;-1.930;2023-05-20T01:53:18;101517.582;;;;
44734;BME280;30462;52.446;-1.930;2023-05-20T01:54:18;101511.0195;;;;
44734;BME280;30462;52.446;-1.930;2023-05-20T01:55:18;101515.1289;;;;
44734;BME280;30462;52.446;-1.930;2023-05-20T01:56:18;101515.0781;;;;
44734;BME280;30462;52.446;-1.930;2023-05-20T01:57:18;101512.9961;;;;
44734;BME280;30462;52.446;-1.930;2023-05-20T01:58:18;101512.5898;;;;
44734;BME280;30462;52.446;-1.930;2023-05-20T01:59:18;101515.4297;;;;
44734;BME280;30462;52.446;-1.930;2023-05-20T02:00:18;101513.7891;;;;
44734;BME280;30462;52.446;-1.930;2023-05-20T02:01:18;101510.8516;;;;
44734;BME280;30462;52.446;-1.930;2023-05-20T02:02:18;101511.5117;;;;
44734;BME280;30462;52.446;-1.930;2023-05-20T02:03:17;101510.707;;;;
44734;BME280;30462;52.446;-1.930;2023-05-20T02:04:18;101507.1992;;;;
44734;BME280;30462;52.446;-1.930;2023-05-20T02:05:18;101507.1445;;;;
44734;BME280;30462;52.446;-1.930;2023-05-20T02:06:18;101506.6563;;;;
44734;BME280;30462;52.446;-1.930;2023-05-20T02:07:17;101504.9453;;;;
44734;BME280;30462;52.446;-1.930;2023-05-20T02:08:18;101506.9805;;;;
44734;BME280;30462;52.446;-1.930;2023-05-20T02:09:18;101505.2734;;;;
44734;BME280;30462;52.446;-1.930;2023-05-20T02:10:18;101505.9453;;;;
44734;BME280;30462;52.446;-1.930;2023-05-20T02:11:18;101511.1484;;;;
44734;BME280;30462;52.446;-1.930;2023-05-20T02:12:18;101507.9922;;;;
44734;BME280;30462;52.446;-1.930;2023-05-20T02:13:18;101504.9805;;;;
44734;BME280;30462;52.446;-1.930;2023-05-20T02:14:18;101510.2148;;;;
44734;BME280;30462;52.446;-1.930;2023-05-20T02:15:18;101507.5703;;;;
44734;BME280;30462;52.446;-1.930;2023-05-20T02:16:17;101504.6289;;;;
44734;BME280;30462;52.446;-1.930;2023-05-20T02:17:18;101508.5938;;;;
44734;BME280;30462;52.446;-1.930;2023-05-20T02:18:18;101504.2773;;;;
44734;BME280;30462;52.446;-1.930;2023-05-20T02:19:17;101504.8633;;;;
44734;BME280;30462;52.446;-1.930;2023-05-20T02:20:18;101503.332;;;;
44734;BME280;30462;52.446;-1.930;2023-05-20T02:21:18;101505.1758;;;;
44734;BME280;30462;52.446;-1.930;2023-05-20T02:22:18;101504.0938;;;;
44734;BME280;30462;52.446;-1.930;2023-05-20T02:23:18;101500.9297;;;;
44734;BME280;30462;52.446;-1.930;2023-05-20T02:24:18;101502.3828;;;;
44734;BME280;30462;52.446;-1.930;2023-05-20T02:25:18;101505.332;;;;
44734;BME280;30462;52.446;-1.930;2023-05-20T02:26:17;101502.9219;;;;
44734;BME280;30462;52.446;-1.930;2023-05-20T02:27:18;101501.3477;;;;
44734;BME280;30462;52.446;-1.930;2023-05-20T02:28:18;101502.3555;;;;
44734;BME280;30462;52.446;-1.930;2023-05-20T02:29:18;101500.1367;;;;
44734;BME280;30462;52.446;-1.930;2023-05-20T02:30:18;101501.0273;;;;
44734;BME280;30462;52.446;-1.930;2023-05-20T02:31:17;101497.918;;;;
44734;BME280;30462;52.446;-1.930;2023-05-20T02:32:18;101499.3789;;;;
44734;BME280;30462;52.446;-1.930;2023-05-20T02:33:18;101496.6484;;;;
44734;BME280;30462;52.446;-1.930;2023-05-20T02:34:19;101497.8477;;;;
44734;BME280;30462;52.446;-1.930;2023-05-20T02:35:18;101497.7578;;;;
44734;BME280;30462;52.446;-1.930;2023-05-20T02:36:18;101495.5781;;;;
44734;BME280;30462;52.446;-1.930;2023-05-20T02:37:18;101499.4688;;;;
44734;BME280;30462;52.446;-1.930;2023-05-20T02:38:17;101499.9063;;;;
44734;BME280;30462;52.446;-1.930;2023-05-20T02:39:17;101498.8867;;;;
44734;BME280;30462;52.446;-1.930;2023-05-20T02:40:18;101500.0586;;;;
44734;BME280;30462;52.446;-1.930;2023-05-20T02:41:18;101497.2266;;;;
44734;BME280;30462;52.446;-1.930;2023-05-20T02:42:18;101497.7891;;;;
44734;BME280;30462;52.446;-1.930;2023-05-20T02:43:17;101498.7266;;;;
44734;BME280;30462;52.446;-1.930;2023-05-20T02:44:18;101498.7539;;;;
44734;BME280;30462;52.446;-1.930;2023-05-20T02:45:18;101495.2852;;;;
44734;BME280;30462;52.446;-1.930;2023-05-20T02:46:18;101496.9609;;;;
44734;BME280;30462;52.446;-1.930;2023-05-20T02:47:17;101499.2617;;;;
44734;BME280;30462;52.446;-1.930;2023-05-20T02:48:18;101496.2305;;;;
44734;BME280;30462;52.446;-1.930;2023-05-20T02:49:18;101495.3047;;;;
44734;BME280;30462;52.446;-1.930;2023-05-20T02:50:18;101496.8984;;;;
44734;BME280;30462;52.446;-1.930;2023-05-20T02:51:18;101498.5742;;;;
44734;BME280;30462;52.446;-1.930;2023-05-20T02:52:18;101494.6953;;;;
44734;BME280;30462;52.446;-1.930;2023-05-20T02:53:17;101493.9961;;;;
44734;BME280;30462;52.446;-1.930;2023-05-20T02:54:17;101497.2734;;;;
44734;BME280;30462;52.446;-1.930;2023-05-20T02:55:17;101496.1289;;;;
44734;BME280;30462;52.446;-1.930;2023-05-20T02:56:18;101491.4648;;;;
44734;BME280;30462;52.446;-1.930;2023-05-20T02:57:18;101493.8281;;;;
44734;BME280;30462;52.446;-1.930;2023-05-20T02:58:18;101496.082;;;;
44734;BME280;30462;52.446;-1.930;2023-05-20T02:59:18;101497.7227;;;;
44734;BME280;30462;52.446;-1.930;2023-05-20T03:00:18;101496.625;;;;
44734;BME280;30462;52.446;-1.930;2023-05-20T03:01:17;101497.9453;;;;
44734;BME280;30462;52.446;-1.930;2023-05-20T03:02:18;101496.7266;;;;
44734;BME280;30462;52.446;-1.930;2023-05-20T03:03:18;101500.4297;;;;
44734;BME280;30462;52.446;-1.930;2023-05-20T03:04:18;101501.375;;;;
44734;BME280;30462;52.446;-1.930;2023-05-20T03:05:18;101502.1758;;;;
44734;BME280;30462;52.446;-1.930;2023-05-20T03:06:17;101498.9883;;;;
44734;BME280;30462;52.446;-1.930;2023-05-20T03:07:18;101500.043;;;;
44734;BME280;30462;52.446;-1.930;2023-05-20T03:08:19;101498.7188;;;;
44734;BME280;30462;52.446;-1.930;2023-05-20T03:09:18;101496.2383;;;;
44734;BME280;30462;52.446;-1.930;2023-05-20T03:10:18;101495.2422;;;;
44734;BME280;30462;52.446;-1.930;2023-05-20T03:11:18;101497.8906;;;;
44734;BME280;30462;52.446;-1.930;2023-05-20T03:12:18;101495.1836;;;;
44734;BME280;30462;52.446;-1.930;2023-05-20T03:13:17;101494.8086;;;;
44734;BME280;30462;52.446;-1.930;2023-05-20T03:14:18;101491.5313;;;;
44734;BME280;30462;52.446;-1.930;2023-05-20T03:15:18;101497.3477;;;;
44734;BME280;30462;52.446;-1.930;2023-05-20T03:16:18;101492.4688;;;;
44734;BME280;30462;52.446;-1.930;2023-05-20T03:17:17;101488.8164;;;;
44734;BME280;30462;52.446;-1.930;2023-05-20T03:18:17;101486.2734;;;;
44734;BME280;30462;52.446;-1.930;2023-05-20T03:19:18;101490.5352;;;;
44734;BME280;30462;52.446;-1.930;2023-05-20T03:20:18;101489.6445;;;;
44734;BME280;30462;52.446;-1.930;2023-05-20T03:21:18;101485.5508;;;;
44734;BME280;30462;52.446;-1.930;2023-05-20T03:22:18;101486.3789;;;;
44734;BME280;30462;52.446;-1.930;2023-05-20T03:23:18;101484.5898;;;;
44734;BME280;30462;52.446;-1.930;2023-05-20T03:24:18;101485.5859;;;;
44734;BME280;30462;52.446;-1.930;2023-05-20T03:25:17;101482;;;;
44734;BME280;30462;52.446;-1.930;2023-05-20T03:26:18;101479.8125;;;;
44734;BME280;30462;52.446;-1.930;2023-05-20T03:27:18;101477.6914;;;;
44734;BME280;30462;52.446;-1.930;2023-05-20T03:28:18;101481.8008;;;;
44734;BME280;30462;52.446;-1.930;2023-05-20T03:29:18;101480.9258;;;;
44734;BME280;30462;52.446;-1.930;2023-05-20T03:30:18;101479.2031;;;;
44734;BME280;30462;52.446;-1.930;2023-05-20T03:31:18;101481.5313;;;;
44734;BME280;30462;52.446;-1.930;2023-05-20T03:32:18;101476.9766;;;;
44734;BME280;30462;52.446;-1.930;2023-05-20T03:33:18;101475.1523;;;;
44734;BME280;30462;52.446;-1.930;2023-05-20T03:34:17;101475.5977;;;;
44734;BME280;30462;52.446;-1.930;2023-05-20T03:35:18;101476.5;;;;
44734;BME280;30462;52.446;-1.930;2023-05-20T03:36:18;101474.7422;;;;
44734;BME280;30462;52.446;-1.930;2023-05-20T03:37:18;101473.5352;;;;
44734;BME280;30462;52.446;-1.930;2023-05-20T03:38:18;101471.6836;;;;
44734;BME280;30462;52.446;-1.930;2023-05-20T03:39:18;101470.4688;;;;
44734;BME280;30462;52.446;-1.930;2023-05-20T03:40:18;101473.6875;;;;
44734;BME280;30462;52.446;-1.930;2023-05-20T03:41:18;101474.7148;;;;
44734;BME280;30462;52.446;-1.930;2023-05-20T03:42:18;101472.0273;;;;
44734;BME280;30462;52.446;-1.930;2023-05-20T03:43:18;101474.1563;;;;
44734;BME280;30462;52.446;-1.930;2023-05-20T03:44:18;101475.3242;;;;
44734;BME280;30462;52.446;-1.930;2023-05-20T03:45:18;101474.5273;;;;
44734;BME280;30462;52.446;-1.930;2023-05-20T03:46:18;101478.6484;;;;
44734;BME280;30462;52.446;-1.930;2023-05-20T03:47:18;101479.0117;;;;
44734;BME280;30462;52.446;-1.930;2023-05-20T03:48:18;101481.957;;;;
44734;BME280;30462;52.446;-1.930;2023-05-20T03:49:17;101477.6719;;;;
44734;BME280;30462;52.446;-1.930;2023-05-20T03:50:18;101479.4531;;;;
44734;BME280;30462;52.446;-1.930;2023-05-20T03:51:18;101477.8672;;;;
44734;BME280;30462;52.446;-1.930;2023-05-20T03:52:18;101474.7813;;;;
44734;BME280;30462;52.446;-1.930;2023-05-20T03:53:18;101474.7227;;;;
44734;BME280;30462;52.446;-1.930;2023-05-20T03:54:18;101476.9805;;;;
44734;BME280;30462;52.446;-1.930;2023-05-20T03:55:19;101476.0547;;;;
44734;BME280;30462;52.446;-1.930;2023-05-20T03:56:17;101477.6367;;;;
44734;BME280;30462;52.446;-1.930;2023-05-20T03:57:18;101474.2422;;;;
44734;BME280;30462;52.446;-1.930;2023-05-20T03:58:18;101475.5078;;;;
44734;BME280;30462;52.446;-1.930;2023-05-20T03:59:18;101474.9102;;;;
44734;BME280;30462;52.446;-1.930;2023-05-20T04:00:18;101474.2344;;;;
44734;BME280;30462;52.446;-1.930;2023-05-20T04:01:18;101471.9961;;;;
44734;BME280;30462;52.446;-1.930;2023-05-20T04:02:18;101470.9492;;;;
44734;BME280;30462;52.446;-1.930;2023-05-20T04:03:18;101474.707;;;;
44734;BME280;30462;52.446;-1.930;2023-05-20T04:04:17;101476.0508;;;;
44734;BME280;30462;52.446;-1.930;2023-05-20T04:05:18;101473.8047;;;;
44734;BME280;30462;52.446;-1.930;2023-05-20T04:06:18;101472.3984;;;;
44734;BME280;30462;52.446;-1.930;2023-05-20T04:07:18;101472.3984;;;;
44734;BME280;30462;52.446;-1.930;2023-05-20T04:08:18;101471.5352;;;;
44734;BME280;30462;52.446;-1.930;2023-05-20T04:09:18;101472.7461;;;;
44734;BME280;30462;52.446;-1.930;2023-05-20T04:10:18;101474.9414;;;;
44734;BME280;30462;52.446;-1.930;2023-05-20T04:11:18;101475.4766;;;;
44734;BME280;30462;52.446;-1.930;2023-05-20T04:12:18;101474.8633;;;;
44734;BME280;30462;52.446;-1.930;2023-05-20T04:13:18;101475.9727;;;;
44734;BME280;30462;52.446;-1.930;2023-05-20T04:14:17;101476.9492;;;;
44734;BME280;30462;52.446;-1.930;2023-05-20T04:15:18;101476.6211;;;;
44734;BME280;30462;52.446;-1.930;2023-05-20T04:16:18;101476.4766;;;;
44734;BME280;30462;52.446;-1.930;2023-05-20T04:17:18;101474.8398;;;;
44734;BME280;30462;52.446;-1.930;2023-05-20T04:18:18;101476.5391;;;;
44734;BME280;30462;52.446;-1.930;2023-05-20T04:19:18;101478.1055;;;;
44734;BME280;30462;52.446;-1.930;2023-05-20T04:20:18;101477.4688;;;;
44734;BME280;30462;52.446;-1.930;2023-05-20T04:21:18;101477.168;;;;
44734;BME280;30462;52.446;-1.930;2023-05-20T04:22:18;101479.1367;;;;
44734;BME280;30462;52.446;-1.930;2023-05-20T04:23:17;101480.4297;;;;
44734;BME280;30462;52.446;-1.930;2023-05-20T04:24:17;101480.6211;;;;
44734;BME280;30462;52.446;-1.930;2023-05-20T04:25:18;101479.0625;;;;
44734;BME280;30462;52.446;-1.930;2023-05-20T04:26:18;101481.8477;;;;
44734;BME280;30462;52.446;-1.930;2023-05-20T04:27:18;101482.7852;;;;
44734;BME280;30462;52.446;-1.930;2023-05-20T04:28:18;101479.7109;;;;
44734;BME280;30462;52.446;-1.930;2023-05-20T04:29:18;101483.4375;;;;
44734;BME280;30462;52.446;-1.930;2023-05-20T04:30:17;101480.3008;;;;
44734;BME280;30462;52.446;-1.930;2023-05-20T04:31:17;101480.6289;;;;
44734;BME280;30462;52.446;-1.930;2023-05-20T04:32:18;101483.1445;;;;
44734;BME280;30462;52.446;-1.930;2023-05-20T04:33:18;101482.7227;;;;
44734;BME280;30462;52.446;-1.930;2023-05-20T04:34:18;101480.1016;;;;
44734;BME280;30462;52.446;-1.930;2023-05-20T04:35:18;101480.9805;;;;
44734;BME280;30462;52.446;-1.930;2023-05-20T04:36:18;101480.8984;;;;
44734;BME280;30462;52.446;-1.930;2023-05-20T04:37:17;101482.5625;;;;
44734;BME280;30462;52.446;-1.930;2023-05-20T04:38:17;101481.1914;;;;
44734;BME280;30462;52.446;-1.930;2023-05-20T04:39:18;101483.3203;;;;
44734;BME280;30462;52.446;-1.930;2023-05-20T04:40:18;101482.1602;;;;
44734;BME280;30462;52.446;-1.930;2023-05-20T04:41:18;101482.9688;;;;
44734;BME280;30462;52.446;-1.930;2023-05-20T04:42:18;101481.0156;;;;
44734;BME280;30462;52.446;-1.930;2023-05-20T04:43:18;101482.6914;;;;
44734;BME280;30462;52.446;-1.930;2023-05-20T04:44:18;101478.8164;;;;
44734;BME280;30462;52.446;-1.930;2023-05-20T04:45:18;101480.8516;;;;
44734;BME280;30462;52.446;-1.930;2023-05-20T04:46:18;101479.1641;;;;
44734;BME280;30462;52.446;-1.930;2023-05-20T04:47:18;101482.6172;;;;
44734;BME280;30462;52.446;-1.930;2023-05-20T04:48:17;101485.7539;;;;
44734;BME280;30462;52.446;-1.930;2023-05-20T04:49:18;101485.2695;;;;
44734;BME280;30462;52.446;-1.930;2023-05-20T04:50:18;101485.3516;;;;
44734;BME280;30462;52.446;-1.930;2023-05-20T04:51:18;101486.1133;;;;
44734;BME280;30462;52.446;-1.930;2023-05-20T04:52:18;101488.4063;;;;
44734;BME280;30462;52.446;-1.930;2023-05-20T04:53:18;101494.8203;;;;
44734;BME280;30462;52.446;-1.930;2023-05-20T04:54:17;101491.8594;;;;
44734;BME280;30462;52.446;-1.930;2023-05-20T04:55:18;101490.2695;;;;
44734;BME280;30462;52.446;-1.930;2023-05-20T04:56:18;101488.2148;;;;
44734;BME280;30462;52.446;-1.930;2023-05-20T04:57:18;101489.7109;;;;
44734;BME280;30462;52.446;-1.930;2023-05-20T04:58:17;101485.9492;;;;
44734;BME280;30462;52.446;-1.930;2023-05-20T04:59:18;101484.6211;;;;
44734;BME280;30462;52.446;-1.930;2023-05-20T05:00:18;101486.0547;;;;
44734;BME280;30462;52.446;-1.930;2023-05-20T05:01:18;101485.8398;;;;
44734;BME280;30462;52.446;-1.930;2023-05-20T05:02:18;101484.8359;;;;
44734;BME280;30462;52.446;-1.930;2023-05-20T05:03:18;101487.75;;;;
44734;BME280;30462;52.446;-1.930;2023-05-20T05:04:18;101486.3555;;;;
44734;BME280;30462;52.446;-1.930;2023-05-20T05:05:17;101482.4023;;;;
44734;BME280;30462;52.446;-1.930;2023-05-20T05:06:18;101484.3828;;;;
44734;BME280;30462;52.446;-1.930;2023-05-20T05:07:18;101481.918;;;;
44734;BME280;30462;52.446;-1.930;2023-05-20T05:08:18;101480.1953;;;;
44734;BME280;30462;52.446;-1.930;2023-05-20T05:09:18;101481.0234;;;;
44734;BME280;30462;52.446;-1.930;2023-05-20T05:10:18;101482.7969;;;;
44734;BME280;30462;52.446;-1.930;2023-05-20T05:11:17;101482.7891;;;;
44734;BME280;30462;52.446;-1.930;2023-05-20T05:12:18;101482.375;;;;
44734;BME280;30462;52.446;-1.930;2023-05-20T05:13:18;101481.2148;;;;
44734;BME280;30462;52.446;-1.930;2023-05-20T05:14:18;101478.0156;;;;
44734;BME280;30462;52.446;-1.930;2023-05-20T05:15:18;101481.4727;;;;
44734;BME280;30462;52.446;-1.930;2023-05-20T05:16:17;101476.9141;;;;
44734;BME280;30462;52.446;-1.930;2023-05-20T05:17:19;101482.6289;;;;
44734;BME280;30462;52.446;-1.930;2023-05-20T05:18:18;101481.543;;;;
44734;BME280;30462;52.446;-1.930;2023-05-20T05:19:18;101481.75;;;;
44734;BME280;30462;52.446;-1.930;2023-05-20T05:20:18;101481.1445;;;;
44734;BME280;30462;52.446;-1.930;2023-05-20T05:21:18;101481.918;;;;
44734;BME280;30462;52.446;-1.930;2023-05-20T05:22:18;101484.6914;;;;
44734;BME280;30462;52.446;-1.930;2023-05-20T05:23:17;101481.9336;;;;
44734;BME280;30462;52.446;-1.930;2023-05-20T05:24:18;101483.4961;;;;
44734;BME280;30462;52.446;-1.930;2023-05-20T05:25:18;101481.2461;;;;
44734;BME280;30462;52.446;-1.930;2023-05-20T05:26:18;101481.7109;;;;
44734;BME280;30462;52.446;-1.930;2023-05-20T05:27:18;101481.4883;;;;
44734;BME280;30462;52.446;-1.930;2023-05-20T05:28:18;101481.6523;;;;
44734;BME280;30462;52.446;-1.930;2023-05-20T05:29:18;101480.2188;;;;
44734;BME280;30462;52.446;-1.930;2023-05-20T05:30:17;101480.0469;;;;
44734;BME280;30462;52.446;-1.930;2023-05-20T05:31:18;101482.1016;;;;
44734;BME280;30462;52.446;-1.930;2023-05-20T05:32:18;101476.6484;;;;
44734;BME280;30462;52.446;-1.930;2023-05-20T05:33:18;101482.5234;;;;
44734;BME280;30462;52.446;-1.930;2023-05-20T05:34:18;101476.2695;;;;
44734;BME280;30462;52.446;-1.930;2023-05-20T05:35:17;101476.1523;;;;
44734;BME280;30462;52.446;-1.930;2023-05-20T05:36:17;101478.2148;;;;
44734;BME280;30462;52.446;-1.930;2023-05-20T05:37:18;101476.3594;;;;
44734;BME280;30462;52.446;-1.930;2023-05-20T05:38:17;101479.8203;;;;
44734;BME280;30462;52.446;-1.930;2023-05-20T05:39:17;101472.7773;;;;
44734;BME280;30462;52.446;-1.930;2023-05-20T05:40:18;101473.1797;;;;
44734;BME280;30462;52.446;-1.930;2023-05-20T05:41:17;101472.7266;;;;
44734;BME280;30462;52.446;-1.930;2023-05-20T05:42:18;101470.2891;;;;
44734;BME280;30462;52.446;-1.930;2023-05-20T05:43:18;101471.7031;;;;
44734;BME280;30462;52.446;-1.930;2023-05-20T05:44:18;101471.3359;;;;
44734;BME280;30462;52.446;-1.930;2023-05-20T05:45:18;101470.5938;;;;